MMZO/ZLO METAR and TAF weather

Enter ICAO airport designator
Station Type Date Time Source
MMZO METAR 2019/06/26 17:44 UTC NOAA

MMZO 261744Z 12008KT 10SM SCT025 BKN250 31/26 A2989 RMK SLP101 8/101


Station Type Date Time Source
MMZO Decoded METAR 2019/06/26 17:44 UTC NOAA

Manzanillo International , Mexico (MMZO) 19-09N 104-34W
Jun 26, 2019 - 01:44 PM EDT / 2019.06.26 1744 UTC
Wind: from the ESE (120 degrees) at 9 MPH (8 KT):0
Visibility: 10 mile(s):0
Sky conditions: mostly cloudy
Temperature: 87 F (31 C)
Heat index: 99.7 F (37.6 C):1
Dew Point: 78 F (26 C)
Relative Humidity: 74%
Pressure (altimeter): 29.89 in. Hg (1012 hPa)
ob: MMZO 261744Z 12008KT 10SM SCT025 BKN250 31/26 A2989 RMK SLP101 8/101
cycle: 17

Station Type Date Time Source
MMZO TAF 2019/06/26 18:36 UTC NOAA

TAF MMZO 261730Z 2618/2718 21005KT P6SM SCT020 BKN250
FM262100 23012KT P6SM SCT020CB BKN100
TEMPO 2623/2703 5SM TSRA BKN020CB
FM270400 00000KT P6SM VC TS SCT020CB BKN100 PROB40 2704/2708 6SM -TSRA BKN020CB
FM270900 00000KT 6SM HZ SCT020 BKN100

Example: see airport list